sensor_id;sensor_type;location;lat;lon;timestamp;P1;durP1;ratioP1;P2;durP2;ratioP2
74974;SDS011;68459;50.836;19.138;2023-05-19T00:00:16;4.78;;;1.52;;
74974;SDS011;68459;50.836;19.138;2023-05-19T00:03:48;3.35;;;1.40;;
74974;SDS011;68459;50.836;19.138;2023-05-19T00:06:54;3.20;;;1.53;;
74974;SDS011;68459;50.836;19.138;2023-05-19T00:10:04;2.55;;;1.27;;
74974;SDS011;68459;50.836;19.138;2023-05-19T00:13:09;3.85;;;1.27;;
74974;SDS011;68459;50.836;19.138;2023-05-19T00:16:13;3.47;;;1.30;;
74974;SDS011;68459;50.836;19.138;2023-05-19T00:19:18;3.28;;;1.23;;
74974;SDS011;68459;50.836;19.138;2023-05-19T00:22:23;2.83;;;1.20;;
74974;SDS011;68459;50.836;19.138;2023-05-19T00:25:28;3.45;;;1.50;;
74974;SDS011;68459;50.836;19.138;2023-05-19T00:28:32;4.85;;;1.40;;
74974;SDS011;68459;50.836;19.138;2023-05-19T00:31:36;4.97;;;1.10;;
74974;SDS011;68459;50.836;19.138;2023-05-19T00:34:40;5.03;;;1.10;;
74974;SDS011;68459;50.836;19.138;2023-05-19T00:37:43;3.87;;;1.10;;
74974;SDS011;68459;50.836;19.138;2023-05-19T00:40:49;7.03;;;1.25;;
74974;SDS011;68459;50.836;19.138;2023-05-19T00:43:52;3.47;;;1.10;;
74974;SDS011;68459;50.836;19.138;2023-05-19T00:46:57;2.63;;;0.93;;
74974;SDS011;68459;50.836;19.138;2023-05-19T00:50:01;2.33;;;1.20;;
74974;SDS011;68459;50.836;19.138;2023-05-19T00:53:05;3.08;;;0.90;;
74974;SDS011;68459;50.836;19.138;2023-05-19T00:56:11;3.17;;;1.35;;
74974;SDS011;68459;50.836;19.138;2023-05-19T00:59:15;3.60;;;1.30;;
74974;SDS011;68459;50.836;19.138;2023-05-19T01:02:19;3.90;;;1.13;;
74974;SDS011;68459;50.836;19.138;2023-05-19T01:05:23;2.45;;;0.77;;
74974;SDS011;68459;50.836;19.138;2023-05-19T01:08:28;3.50;;;1.57;;
74974;SDS011;68459;50.836;19.138;2023-05-19T01:11:36;3.03;;;1.20;;
74974;SDS011;68459;50.836;19.138;2023-05-19T01:14:40;3.25;;;1.35;;
74974;SDS011;68459;50.836;19.138;2023-05-19T01:17:46;3.43;;;1.40;;
74974;SDS011;68459;50.836;19.138;2023-05-19T01:21:06;3.42;;;1.50;;
74974;SDS011;68459;50.836;19.138;2023-05-19T01:24:45;4.38;;;1.50;;
74974;SDS011;68459;50.836;19.138;2023-05-19T01:32:31;3.72;;;1.65;;
74974;SDS011;68459;50.836;19.138;2023-05-19T01:35:38;3.40;;;1.13;;
74974;SDS011;68459;50.836;19.138;2023-05-19T01:38:45;3.63;;;1.40;;
74974;SDS011;68459;50.836;19.138;2023-05-19T01:41:53;3.53;;;1.40;;
74974;SDS011;68459;50.836;19.138;2023-05-19T01:45:02;2.55;;;1.15;;
74974;SDS011;68459;50.836;19.138;2023-05-19T01:48:09;2.75;;;0.90;;
74974;SDS011;68459;50.836;19.138;2023-05-19T01:51:13;2.10;;;0.97;;
74974;SDS011;68459;50.836;19.138;2023-05-19T01:54:17;2.40;;;1.10;;
74974;SDS011;68459;50.836;19.138;2023-05-19T01:57:23;2.58;;;1.20;;
74974;SDS011;68459;50.836;19.138;2023-05-19T02:00:44;2.72;;;1.02;;
74974;SDS011;68459;50.836;19.138;2023-05-19T02:04:02;2.88;;;1.10;;
74974;SDS011;68459;50.836;19.138;2023-05-19T02:07:28;3.35;;;1.30;;
74974;SDS011;68459;50.836;19.138;2023-05-19T02:10:44;2.40;;;1.30;;
74974;SDS011;68459;50.836;19.138;2023-05-19T02:14:00;2.90;;;1.40;;
74974;SDS011;68459;50.836;19.138;2023-05-19T02:17:12;3.38;;;1.23;;
74974;SDS011;68459;50.836;19.138;2023-05-19T02:20:21;3.47;;;1.60;;
74974;SDS011;68459;50.836;19.138;2023-05-19T02:23:25;3.40;;;1.50;;
74974;SDS011;68459;50.836;19.138;2023-05-19T02:26:31;4.57;;;1.42;;
74974;SDS011;68459;50.836;19.138;2023-05-19T02:29:38;2.72;;;1.30;;
74974;SDS011;68459;50.836;19.138;2023-05-19T02:32:42;3.50;;;1.67;;
74974;SDS011;68459;50.836;19.138;2023-05-19T02:35:49;4.78;;;1.50;;
74974;SDS011;68459;50.836;19.138;2023-05-19T02:38:53;3.67;;;1.38;;
74974;SDS011;68459;50.836;19.138;2023-05-19T02:41:57;3.97;;;1.90;;
74974;SDS011;68459;50.836;19.138;2023-05-19T02:45:01;3.77;;;1.63;;
74974;SDS011;68459;50.836;19.138;2023-05-19T02:48:05;2.80;;;1.25;;
74974;SDS011;68459;50.836;19.138;2023-05-19T02:51:10;4.05;;;1.52;;
74974;SDS011;68459;50.836;19.138;2023-05-19T02:54:14;3.93;;;1.40;;
74974;SDS011;68459;50.836;19.138;2023-05-19T02:57:18;2.17;;;1.20;;
74974;SDS011;68459;50.836;19.138;2023-05-19T03:00:23;1.98;;;1.10;;
74974;SDS011;68459;50.836;19.138;2023-05-19T03:03:27;3.22;;;1.20;;
74974;SDS011;68459;50.836;19.138;2023-05-19T03:06:32;2.20;;;1.02;;
74974;SDS011;68459;50.836;19.138;2023-05-19T03:09:37;2.78;;;1.40;;
74974;SDS011;68459;50.836;19.138;2023-05-19T03:12:42;4.97;;;1.55;;
74974;SDS011;68459;50.836;19.138;2023-05-19T03:15:46;3.30;;;1.60;;
74974;SDS011;68459;50.836;19.138;2023-05-19T03:18:52;4.53;;;1.27;;
74974;SDS011;68459;50.836;19.138;2023-05-19T03:21:58;3.75;;;1.35;;
74974;SDS011;68459;50.836;19.138;2023-05-19T03:25:01;3.43;;;1.10;;
74974;SDS011;68459;50.836;19.138;2023-05-19T03:28:06;2.97;;;1.27;;
74974;SDS011;68459;50.836;19.138;2023-05-19T03:31:11;2.92;;;1.25;;
74974;SDS011;68459;50.836;19.138;2023-05-19T03:34:15;2.40;;;1.10;;
74974;SDS011;68459;50.836;19.138;2023-05-19T03:37:21;9.02;;;1.70;;
74974;SDS011;68459;50.836;19.138;2023-05-19T03:40:25;2.97;;;1.23;;
74974;SDS011;68459;50.836;19.138;2023-05-19T03:43:36;3.58;;;1.20;;
74974;SDS011;68459;50.836;19.138;2023-05-19T03:46:41;2.10;;;1.10;;
74974;SDS011;68459;50.836;19.138;2023-05-19T03:49:54;3.65;;;1.10;;
74974;SDS011;68459;50.836;19.138;2023-05-19T03:53:22;3.10;;;1.30;;
74974;SDS011;68459;50.836;19.138;2023-05-19T03:56:27;3.13;;;1.53;;
74974;SDS011;68459;50.836;19.138;2023-05-19T03:59:31;3.65;;;1.60;;
74974;SDS011;68459;50.836;19.138;2023-05-19T04:02:37;3.60;;;1.58;;
74974;SDS011;68459;50.836;19.138;2023-05-19T04:05:42;3.67;;;1.40;;
74974;SDS011;68459;50.836;19.138;2023-05-19T04:08:48;4.85;;;1.73;;
74974;SDS011;68459;50.836;19.138;2023-05-19T04:11:52;4.50;;;1.50;;
74974;SDS011;68459;50.836;19.138;2023-05-19T04:14:58;3.25;;;1.75;;
74974;SDS011;68459;50.836;19.138;2023-05-19T04:18:02;3.63;;;1.60;;
74974;SDS011;68459;50.836;19.138;2023-05-19T04:21:06;2.97;;;1.45;;
74974;SDS011;68459;50.836;19.138;2023-05-19T04:24:13;3.38;;;1.63;;
74974;SDS011;68459;50.836;19.138;2023-05-19T04:27:18;3.43;;;1.93;;
74974;SDS011;68459;50.836;19.138;2023-05-19T04:30:23;4.45;;;1.40;;
74974;SDS011;68459;50.836;19.138;2023-05-19T04:33:27;3.90;;;1.90;;
74974;SDS011;68459;50.836;19.138;2023-05-19T04:36:31;3.17;;;1.65;;
74974;SDS011;68459;50.836;19.138;2023-05-19T04:39:38;5.35;;;1.80;;
74974;SDS011;68459;50.836;19.138;2023-05-19T04:42:45;5.40;;;1.50;;
74974;SDS011;68459;50.836;19.138;2023-05-19T04:45:50;3.22;;;1.35;;
74974;SDS011;68459;50.836;19.138;2023-05-19T04:48:55;3.97;;;1.77;;
74974;SDS011;68459;50.836;19.138;2023-05-19T04:52:05;3.20;;;1.80;;
74974;SDS011;68459;50.836;19.138;2023-05-19T04:55:13;4.18;;;1.70;;
74974;SDS011;68459;50.836;19.138;2023-05-19T04:58:18;4.77;;;1.53;;
74974;SDS011;68459;50.836;19.138;2023-05-19T05:01:23;3.20;;;1.88;;
74974;SDS011;68459;50.836;19.138;2023-05-19T05:04:28;5.72;;;1.60;;
74974;SDS011;68459;50.836;19.138;2023-05-19T05:07:32;3.67;;;1.70;;
74974;SDS011;68459;50.836;19.138;2023-05-19T05:10:38;5.13;;;2.13;;
74974;SDS011;68459;50.836;19.138;2023-05-19T05:13:42;3.08;;;1.48;;
74974;SDS011;68459;50.836;19.138;2023-05-19T05:16:48;3.05;;;1.50;;
74974;SDS011;68459;50.836;19.138;2023-05-19T05:19:57;4.33;;;2.10;;
74974;SDS011;68459;50.836;19.138;2023-05-19T05:23:02;4.30;;;1.77;;
74974;SDS011;68459;50.836;19.138;2023-05-19T05:26:14;3.90;;;1.90;;
74974;SDS011;68459;50.836;19.138;2023-05-19T05:29:23;4.90;;;1.80;;
74974;SDS011;68459;50.836;19.138;2023-05-19T05:32:28;4.93;;;1.70;;
74974;SDS011;68459;50.836;19.138;2023-05-19T05:35:34;6.45;;;1.70;;
74974;SDS011;68459;50.836;19.138;2023-05-19T05:38:39;4.55;;;1.83;;
74974;SDS011;68459;50.836;19.138;2023-05-19T05:41:44;3.45;;;1.50;;
74974;SDS011;68459;50.836;19.138;2023-05-19T05:44:49;4.57;;;1.88;;
74974;SDS011;68459;50.836;19.138;2023-05-19T05:47:53;3.58;;;1.58;;
74974;SDS011;68459;50.836;19.138;2023-05-19T05:50:57;5.33;;;2.00;;
74974;SDS011;68459;50.836;19.138;2023-05-19T05:54:05;3.40;;;1.65;;
74974;SDS011;68459;50.836;19.138;2023-05-19T05:57:20;4.60;;;1.70;;
74974;SDS011;68459;50.836;19.138;2023-05-19T06:00:24;3.90;;;2.30;;
74974;SDS011;68459;50.836;19.138;2023-05-19T06:03:29;14.82;;;3.58;;
74974;SDS011;68459;50.836;19.138;2023-05-19T06:06:38;9.07;;;2.08;;
74974;SDS011;68459;50.836;19.138;2023-05-19T06:09:43;4.40;;;1.80;;
74974;SDS011;68459;50.836;19.138;2023-05-19T06:12:48;3.45;;;1.50;;
74974;SDS011;68459;50.836;19.138;2023-05-19T06:15:52;3.70;;;1.58;;
74974;SDS011;68459;50.836;19.138;2023-05-19T06:19:04;9.80;;;2.13;;
74974;SDS011;68459;50.836;19.138;2023-05-19T06:22:09;5.30;;;1.90;;
74974;SDS011;68459;50.836;19.138;2023-05-19T06:25:13;4.40;;;2.00;;
74974;SDS011;68459;50.836;19.138;2023-05-19T06:28:18;11.68;;;2.92;;
74974;SDS011;68459;50.836;19.138;2023-05-19T06:31:24;8.80;;;1.87;;
74974;SDS011;68459;50.836;19.138;2023-05-19T06:34:32;2.72;;;1.70;;
74974;SDS011;68459;50.836;19.138;2023-05-19T06:37:35;3.33;;;1.80;;
74974;SDS011;68459;50.836;19.138;2023-05-19T06:40:39;6.18;;;2.60;;
74974;SDS011;68459;50.836;19.138;2023-05-19T06:43:45;4.95;;;2.08;;
74974;SDS011;68459;50.836;19.138;2023-05-19T06:46:49;4.78;;;2.42;;
74974;SDS011;68459;50.836;19.138;2023-05-19T06:49:53;3.78;;;2.00;;
74974;SDS011;68459;50.836;19.138;2023-05-19T06:53:01;4.53;;;1.87;;
74974;SDS011;68459;50.836;19.138;2023-05-19T06:56:05;3.30;;;1.85;;
74974;SDS011;68459;50.836;19.138;2023-05-19T06:59:13;6.20;;;2.65;;
74974;SDS011;68459;50.836;19.138;2023-05-19T07:02:18;12.20;;;2.17;;
74974;SDS011;68459;50.836;19.138;2023-05-19T07:05:22;6.30;;;2.30;;
74974;SDS011;68459;50.836;19.138;2023-05-19T07:08:30;5.20;;;2.60;;
74974;SDS011;68459;50.836;19.138;2023-05-19T07:11:36;6.95;;;3.00;;
74974;SDS011;68459;50.836;19.138;2023-05-19T07:14:42;3.58;;;2.05;;
74974;SDS011;68459;50.836;19.138;2023-05-19T07:17:47;5.43;;;2.60;;
74974;SDS011;68459;50.836;19.138;2023-05-19T07:20:50;5.45;;;1.85;;
74974;SDS011;68459;50.836;19.138;2023-05-19T07:23:55;3.30;;;2.13;;
74974;SDS011;68459;50.836;19.138;2023-05-19T07:27:01;3.90;;;1.90;;
74974;SDS011;68459;50.836;19.138;2023-05-19T07:30:07;6.10;;;2.20;;
74974;SDS011;68459;50.836;19.138;2023-05-19T07:33:12;4.77;;;2.20;;
74974;SDS011;68459;50.836;19.138;2023-05-19T07:36:16;4.88;;;2.20;;
74974;SDS011;68459;50.836;19.138;2023-05-19T07:39:20;4.35;;;2.22;;
74974;SDS011;68459;50.836;19.138;2023-05-19T07:42:26;4.68;;;1.98;;
74974;SDS011;68459;50.836;19.138;2023-05-19T07:45:31;3.90;;;1.77;;
74974;SDS011;68459;50.836;19.138;2023-05-19T07:48:35;4.97;;;1.80;;
74974;SDS011;68459;50.836;19.138;2023-05-19T07:51:39;3.85;;;1.92;;
74974;SDS011;68459;50.836;19.138;2023-05-19T07:54:44;4.90;;;1.70;;
74974;SDS011;68459;50.836;19.138;2023-05-19T07:57:48;5.63;;;1.98;;
74974;SDS011;68459;50.836;19.138;2023-05-19T08:00:55;7.65;;;2.13;;
74974;SDS011;68459;50.836;19.138;2023-05-19T08:03:59;6.00;;;2.10;;
74974;SDS011;68459;50.836;19.138;2023-05-19T08:07:03;3.72;;;1.70;;
74974;SDS011;68459;50.836;19.138;2023-05-19T08:10:07;7.30;;;2.17;;
74974;SDS011;68459;50.836;19.138;2023-05-19T08:13:11;4.50;;;2.03;;
74974;SDS011;68459;50.836;19.138;2023-05-19T08:16:16;4.20;;;2.00;;
74974;SDS011;68459;50.836;19.138;2023-05-19T08:19:20;4.93;;;1.98;;
74974;SDS011;68459;50.836;19.138;2023-05-19T08:22:24;4.07;;;2.05;;
74974;SDS011;68459;50.836;19.138;2023-05-19T08:25:29;5.70;;;2.10;;
74974;SDS011;68459;50.836;19.138;2023-05-19T08:28:33;6.15;;;1.90;;
74974;SDS011;68459;50.836;19.138;2023-05-19T08:31:38;4.75;;;2.10;;
74974;SDS011;68459;50.836;19.138;2023-05-19T08:34:42;4.13;;;2.20;;
74974;SDS011;68459;50.836;19.138;2023-05-19T08:37:46;3.63;;;1.90;;
74974;SDS011;68459;50.836;19.138;2023-05-19T08:40:50;6.68;;;2.30;;
74974;SDS011;68459;50.836;19.138;2023-05-19T08:43:54;3.15;;;1.75;;
74974;SDS011;68459;50.836;19.138;2023-05-19T08:47:01;4.57;;;2.03;;
74974;SDS011;68459;50.836;19.138;2023-05-19T08:50:09;3.75;;;2.17;;
74974;SDS011;68459;50.836;19.138;2023-05-19T08:53:18;4.82;;;2.03;;
74974;SDS011;68459;50.836;19.138;2023-05-19T08:56:32;4.43;;;2.10;;
74974;SDS011;68459;50.836;19.138;2023-05-19T08:59:36;4.25;;;2.00;;
74974;SDS011;68459;50.836;19.138;2023-05-19T09:02:43;7.90;;;2.50;;
74974;SDS011;68459;50.836;19.138;2023-05-19T09:06:06;5.70;;;2.30;;
74974;SDS011;68459;50.836;19.138;2023-05-19T09:09:11;7.82;;;2.35;;
74974;SDS011;68459;50.836;19.138;2023-05-19T09:12:16;2.88;;;1.80;;
74974;SDS011;68459;50.836;19.138;2023-05-19T09:15:20;3.10;;;1.70;;
74974;SDS011;68459;50.836;19.138;2023-05-19T09:18:31;3.97;;;1.98;;
74974;SDS011;68459;50.836;19.138;2023-05-19T09:21:35;4.68;;;1.90;;
74974;SDS011;68459;50.836;19.138;2023-05-19T09:24:39;4.18;;;1.92;;
74974;SDS011;68459;50.836;19.138;2023-05-19T09:27:44;7.50;;;3.10;;
74974;SDS011;68459;50.836;19.138;2023-05-19T09:30:54;3.08;;;2.03;;
74974;SDS011;68459;50.836;19.138;2023-05-19T09:34:12;4.03;;;2.78;;
74974;SDS011;68459;50.836;19.138;2023-05-19T09:37:16;6.37;;;2.80;;
74974;SDS011;68459;50.836;19.138;2023-05-19T09:40:20;4.20;;;2.63;;
74974;SDS011;68459;50.836;19.138;2023-05-19T09:43:25;5.00;;;2.72;;
74974;SDS011;68459;50.836;19.138;2023-05-19T09:46:31;3.30;;;2.15;;
74974;SDS011;68459;50.836;19.138;2023-05-19T09:49:38;3.78;;;2.33;;
74974;SDS011;68459;50.836;19.138;2023-05-19T09:52:49;5.43;;;2.40;;
74974;SDS011;68459;50.836;19.138;2023-05-19T09:55:55;4.22;;;2.38;;
74974;SDS011;68459;50.836;19.138;2023-05-19T09:59:00;5.43;;;2.30;;
74974;SDS011;68459;50.836;19.138;2023-05-19T10:02:05;3.75;;;2.30;;
74974;SDS011;68459;50.836;19.138;2023-05-19T10:05:21;7.10;;;2.30;;
74974;SDS011;68459;50.836;19.138;2023-05-19T10:08:26;3.70;;;2.33;;
74974;SDS011;68459;50.836;19.138;2023-05-19T10:11:33;4.18;;;2.40;;
74974;SDS011;68459;50.836;19.138;2023-05-19T10:14:37;5.05;;;2.53;;
74974;SDS011;68459;50.836;19.138;2023-05-19T10:17:43;4.05;;;2.40;;
74974;SDS011;68459;50.836;19.138;2023-05-19T10:20:49;4.57;;;2.47;;
74974;SDS011;68459;50.836;19.138;2023-05-19T10:23:54;4.38;;;2.22;;
74974;SDS011;68459;50.836;19.138;2023-05-19T10:26:59;5.00;;;2.78;;
74974;SDS011;68459;50.836;19.138;2023-05-19T10:30:11;3.67;;;2.43;;
74974;SDS011;68459;50.836;19.138;2023-05-19T10:33:20;4.00;;;2.55;;
74974;SDS011;68459;50.836;19.138;2023-05-19T10:36:46;4.75;;;2.80;;
74974;SDS011;68459;50.836;19.138;2023-05-19T10:39:57;6.17;;;2.97;;
74974;SDS011;68459;50.836;19.138;2023-05-19T10:43:05;5.18;;;2.90;;
74974;SDS011;68459;50.836;19.138;2023-05-19T10:46:22;4.25;;;2.75;;
74974;SDS011;68459;50.836;19.138;2023-05-19T10:49:28;8.07;;;3.10;;
74974;SDS011;68459;50.836;19.138;2023-05-19T10:52:39;4.75;;;3.30;;
74974;SDS011;68459;50.836;19.138;2023-05-19T10:55:43;5.47;;;2.97;;
74974;SDS011;68459;50.836;19.138;2023-05-19T10:58:49;5.30;;;3.08;;
74974;SDS011;68459;50.836;19.138;2023-05-19T11:01:53;6.40;;;3.30;;
74974;SDS011;68459;50.836;19.138;2023-05-19T11:04:59;6.82;;;2.92;;
74974;SDS011;68459;50.836;19.138;2023-05-19T11:08:13;6.07;;;2.92;;
74974;SDS011;68459;50.836;19.138;2023-05-19T11:11:18;4.07;;;2.67;;
74974;SDS011;68459;50.836;19.138;2023-05-19T11:14:25;4.32;;;2.63;;
74974;SDS011;68459;50.836;19.138;2023-05-19T11:17:29;5.25;;;3.03;;
74974;SDS011;68459;50.836;19.138;2023-05-19T11:20:36;5.82;;;2.90;;
74974;SDS011;68459;50.836;19.138;2023-05-19T11:23:42;5.68;;;3.25;;
74974;SDS011;68459;50.836;19.138;2023-05-19T11:26:46;4.75;;;3.20;;
74974;SDS011;68459;50.836;19.138;2023-05-19T11:29:50;5.32;;;3.70;;
74974;SDS011;68459;50.836;19.138;2023-05-19T11:32:55;4.53;;;2.70;;
74974;SDS011;68459;50.836;19.138;2023-05-19T11:35:59;5.85;;;3.40;;
74974;SDS011;68459;50.836;19.138;2023-05-19T11:39:05;9.85;;;3.63;;
74974;SDS011;68459;50.836;19.138;2023-05-19T11:42:11;8.13;;;3.07;;
74974;SDS011;68459;50.836;19.138;2023-05-19T11:45:16;6.07;;;3.17;;
74974;SDS011;68459;50.836;19.138;2023-05-19T11:48:20;5.70;;;3.42;;
74974;SDS011;68459;50.836;19.138;2023-05-19T11:51:25;6.50;;;3.80;;
74974;SDS011;68459;50.836;19.138;2023-05-19T11:54:30;5.70;;;3.80;;
74974;SDS011;68459;50.836;19.138;2023-05-19T11:57:37;7.15;;;4.13;;
74974;SDS011;68459;50.836;19.138;2023-05-19T12:00:47;5.97;;;3.58;;
74974;SDS011;68459;50.836;19.138;2023-05-19T12:03:53;7.23;;;3.87;;
74974;SDS011;68459;50.836;19.138;2023-05-19T12:06:57;6.97;;;3.28;;
74974;SDS011;68459;50.836;19.138;2023-05-19T12:13:17;5.57;;;3.45;;
74974;SDS011;68459;50.836;19.138;2023-05-19T12:16:31;5.20;;;3.70;;
74974;SDS011;68459;50.836;19.138;2023-05-19T12:19:35;5.60;;;3.57;;
74974;SDS011;68459;50.836;19.138;2023-05-19T12:22:40;9.00;;;4.10;;
74974;SDS011;68459;50.836;19.138;2023-05-19T12:25:44;5.60;;;3.42;;
74974;SDS011;68459;50.836;19.138;2023-05-19T12:28:50;7.73;;;4.13;;
74974;SDS011;68459;50.836;19.138;2023-05-19T12:31:54;6.30;;;3.38;;
74974;SDS011;68459;50.836;19.138;2023-05-19T12:35:00;7.28;;;3.67;;
74974;SDS011;68459;50.836;19.138;2023-05-19T12:38:06;8.40;;;4.47;;
74974;SDS011;68459;50.836;19.138;2023-05-19T12:41:10;6.32;;;3.88;;
74974;SDS011;68459;50.836;19.138;2023-05-19T12:44:16;7.38;;;4.10;;
74974;SDS011;68459;50.836;19.138;2023-05-19T12:47:20;6.53;;;4.28;;
74974;SDS011;68459;50.836;19.138;2023-05-19T12:50:28;9.70;;;3.63;;
74974;SDS011;68459;50.836;19.138;2023-05-19T12:53:34;6.85;;;4.25;;
74974;SDS011;68459;50.836;19.138;2023-05-19T12:56:44;7.80;;;4.35;;
74974;SDS011;68459;50.836;19.138;2023-05-19T12:59:58;5.80;;;4.00;;
74974;SDS011;68459;50.836;19.138;2023-05-19T13:03:03;8.25;;;4.32;;
74974;SDS011;68459;50.836;19.138;2023-05-19T13:06:09;5.95;;;3.53;;
74974;SDS011;68459;50.836;19.138;2023-05-19T13:09:13;7.45;;;4.10;;
74974;SDS011;68459;50.836;19.138;2023-05-19T13:12:18;6.80;;;3.97;;
74974;SDS011;68459;50.836;19.138;2023-05-19T13:15:23;7.15;;;3.88;;
74974;SDS011;68459;50.836;19.138;2023-05-19T13:18:30;6.25;;;3.80;;
74974;SDS011;68459;50.836;19.138;2023-05-19T13:21:35;5.20;;;3.40;;
74974;SDS011;68459;50.836;19.138;2023-05-19T13:24:39;6.18;;;3.60;;
74974;SDS011;68459;50.836;19.138;2023-05-19T13:27:43;5.80;;;4.28;;
74974;SDS011;68459;50.836;19.138;2023-05-19T13:30:51;7.80;;;4.33;;
74974;SDS011;68459;50.836;19.138;2023-05-19T13:33:56;6.20;;;4.38;;
74974;SDS011;68459;50.836;19.138;2023-05-19T13:37:00;7.00;;;4.18;;
74974;SDS011;68459;50.836;19.138;2023-05-19T13:40:04;8.23;;;4.72;;
74974;SDS011;68459;50.836;19.138;2023-05-19T13:43:09;6.80;;;4.28;;
74974;SDS011;68459;50.836;19.138;2023-05-19T13:46:14;7.85;;;5.20;;
74974;SDS011;68459;50.836;19.138;2023-05-19T13:49:19;6.18;;;4.43;;
74974;SDS011;68459;50.836;19.138;2023-05-19T13:52:23;6.07;;;4.30;;
74974;SDS011;68459;50.836;19.138;2023-05-19T13:55:31;11.20;;;4.45;;
74974;SDS011;68459;50.836;19.138;2023-05-19T13:58:35;5.93;;;4.18;;
74974;SDS011;68459;50.836;19.138;2023-05-19T14:01:40;7.03;;;4.40;;
74974;SDS011;68459;50.836;19.138;2023-05-19T14:04:45;6.22;;;4.35;;
74974;SDS011;68459;50.836;19.138;2023-05-19T14:07:49;7.88;;;4.68;;
74974;SDS011;68459;50.836;19.138;2023-05-19T14:10:53;7.20;;;4.65;;
74974;SDS011;68459;50.836;19.138;2023-05-19T14:13:58;6.63;;;4.28;;
74974;SDS011;68459;50.836;19.138;2023-05-19T14:17:05;8.55;;;4.68;;
74974;SDS011;68459;50.836;19.138;2023-05-19T14:20:10;7.38;;;4.68;;
74974;SDS011;68459;50.836;19.138;2023-05-19T14:23:14;7.77;;;4.40;;
74974;SDS011;68459;50.836;19.138;2023-05-19T14:26:20;7.82;;;5.05;;
74974;SDS011;68459;50.836;19.138;2023-05-19T14:29:25;5.18;;;4.18;;
74974;SDS011;68459;50.836;19.138;2023-05-19T14:32:33;7.27;;;4.40;;
74974;SDS011;68459;50.836;19.138;2023-05-19T14:35:37;7.40;;;4.43;;
74974;SDS011;68459;50.836;19.138;2023-05-19T14:38:41;6.45;;;4.80;;
74974;SDS011;68459;50.836;19.138;2023-05-19T14:41:44;9.30;;;4.75;;
74974;SDS011;68459;50.836;19.138;2023-05-19T14:44:50;7.65;;;4.75;;
74974;SDS011;68459;50.836;19.138;2023-05-19T14:47:55;9.18;;;5.35;;
74974;SDS011;68459;50.836;19.138;2023-05-19T14:50:59;8.57;;;4.93;;
74974;SDS011;68459;50.836;19.138;2023-05-19T14:54:04;7.63;;;5.23;;
74974;SDS011;68459;50.836;19.138;2023-05-19T14:57:08;8.57;;;5.07;;
74974;SDS011;68459;50.836;19.138;2023-05-19T15:00:12;8.43;;;5.35;;
74974;SDS011;68459;50.836;19.138;2023-05-19T15:03:18;8.93;;;5.03;;
74974;SDS011;68459;50.836;19.138;2023-05-19T15:06:23;7.43;;;4.95;;
74974;SDS011;68459;50.836;19.138;2023-05-19T15:09:28;8.00;;;4.88;;
74974;SDS011;68459;50.836;19.138;2023-05-19T15:12:31;8.45;;;4.25;;
74974;SDS011;68459;50.836;19.138;2023-05-19T15:15:35;7.75;;;4.82;;
74974;SDS011;68459;50.836;19.138;2023-05-19T15:18:40;8.90;;;4.90;;
74974;SDS011;68459;50.836;19.138;2023-05-19T15:21:44;7.30;;;4.88;;
74974;SDS011;68459;50.836;19.138;2023-05-19T15:24:50;7.90;;;5.17;;
74974;SDS011;68459;50.836;19.138;2023-05-19T15:27:54;7.15;;;5.00;;
74974;SDS011;68459;50.836;19.138;2023-05-19T15:30:57;7.38;;;4.90;;
74974;SDS011;68459;50.836;19.138;2023-05-19T15:34:03;9.10;;;5.07;;
74974;SDS011;68459;50.836;19.138;2023-05-19T15:37:07;7.72;;;5.00;;
74974;SDS011;68459;50.836;19.138;2023-05-19T15:40:11;7.95;;;5.03;;
74974;SDS011;68459;50.836;19.138;2023-05-19T15:43:15;9.25;;;5.50;;
74974;SDS011;68459;50.836;19.138;2023-05-19T15:46:19;9.20;;;4.53;;
74974;SDS011;68459;50.836;19.138;2023-05-19T15:49:24;10.38;;;5.30;;
74974;SDS011;68459;50.836;19.138;2023-05-19T15:52:28;8.77;;;5.32;;
74974;SDS011;68459;50.836;19.138;2023-05-19T15:55:32;9.67;;;5.50;;
74974;SDS011;68459;50.836;19.138;2023-05-19T15:58:36;9.07;;;5.75;;
74974;SDS011;68459;50.836;19.138;2023-05-19T16:01:39;10.00;;;5.85;;
74974;SDS011;68459;50.836;19.138;2023-05-19T16:04:45;9.57;;;5.53;;
74974;SDS011;68459;50.836;19.138;2023-05-19T16:07:48;9.65;;;5.43;;
74974;SDS011;68459;50.836;19.138;2023-05-19T16:10:52;12.30;;;6.68;;
74974;SDS011;68459;50.836;19.138;2023-05-19T16:13:56;12.48;;;6.05;;
74974;SDS011;68459;50.836;19.138;2023-05-19T16:17:00;7.72;;;5.32;;
74974;SDS011;68459;50.836;19.138;2023-05-19T16:20:06;10.60;;;5.30;;
74974;SDS011;68459;50.836;19.138;2023-05-19T16:23:11;8.27;;;5.40;;
74974;SDS011;68459;50.836;19.138;2023-05-19T16:26:15;8.27;;;5.30;;
74974;SDS011;68459;50.836;19.138;2023-05-19T16:29:19;8.40;;;5.65;;
74974;SDS011;68459;50.836;19.138;2023-05-19T16:32:23;10.90;;;5.57;;
74974;SDS011;68459;50.836;19.138;2023-05-19T16:35:28;8.90;;;5.57;;
74974;SDS011;68459;50.836;19.138;2023-05-19T16:38:33;10.90;;;6.05;;
74974;SDS011;68459;50.836;19.138;2023-05-19T16:41:37;11.15;;;5.93;;
74974;SDS011;68459;50.836;19.138;2023-05-19T16:44:40;10.20;;;6.15;;
74974;SDS011;68459;50.836;19.138;2023-05-19T16:47:45;9.52;;;6.28;;
74974;SDS011;68459;50.836;19.138;2023-05-19T16:50:51;12.27;;;6.97;;
74974;SDS011;68459;50.836;19.138;2023-05-19T16:53:54;8.55;;;5.85;;
74974;SDS011;68459;50.836;19.138;2023-05-19T16:56:58;9.50;;;6.50;;
74974;SDS011;68459;50.836;19.138;2023-05-19T17:00:03;10.02;;;6.70;;
74974;SDS011;68459;50.836;19.138;2023-05-19T17:03:07;9.60;;;6.30;;
74974;SDS011;68459;50.836;19.138;2023-05-19T17:06:14;11.63;;;6.70;;
74974;SDS011;68459;50.836;19.138;2023-05-19T17:09:18;9.75;;;5.65;;
74974;SDS011;68459;50.836;19.138;2023-05-19T17:12:26;8.90;;;6.40;;
74974;SDS011;68459;50.836;19.138;2023-05-19T17:15:30;10.15;;;5.97;;
74974;SDS011;68459;50.836;19.138;2023-05-19T17:18:35;11.30;;;6.40;;
74974;SDS011;68459;50.836;19.138;2023-05-19T17:21:41;9.35;;;5.68;;
74974;SDS011;68459;50.836;19.138;2023-05-19T17:24:45;9.57;;;5.80;;
74974;SDS011;68459;50.836;19.138;2023-05-19T17:27:49;9.07;;;6.17;;
74974;SDS011;68459;50.836;19.138;2023-05-19T17:30:53;10.30;;;6.15;;
74974;SDS011;68459;50.836;19.138;2023-05-19T17:33:57;9.80;;;6.40;;
74974;SDS011;68459;50.836;19.138;2023-05-19T17:37:02;10.03;;;6.10;;
74974;SDS011;68459;50.836;19.138;2023-05-19T17:40:06;11.02;;;6.80;;
74974;SDS011;68459;50.836;19.138;2023-05-19T17:43:12;10.27;;;7.10;;
74974;SDS011;68459;50.836;19.138;2023-05-19T17:46:15;11.35;;;7.30;;
74974;SDS011;68459;50.836;19.138;2023-05-19T17:49:19;11.85;;;7.40;;
74974;SDS011;68459;50.836;19.138;2023-05-19T17:52:25;13.82;;;7.63;;
74974;SDS011;68459;50.836;19.138;2023-05-19T17:55:30;11.00;;;6.85;;
74974;SDS011;68459;50.836;19.138;2023-05-19T17:58:35;12.50;;;6.60;;
74974;SDS011;68459;50.836;19.138;2023-05-19T18:01:39;11.80;;;7.32;;
74974;SDS011;68459;50.836;19.138;2023-05-19T18:04:44;9.85;;;6.43;;
74974;SDS011;68459;50.836;19.138;2023-05-19T18:07:50;9.50;;;6.00;;
74974;SDS011;68459;50.836;19.138;2023-05-19T18:10:56;9.73;;;6.53;;
74974;SDS011;68459;50.836;19.138;2023-05-19T18:14:01;14.05;;;6.68;;
74974;SDS011;68459;50.836;19.138;2023-05-19T18:17:04;10.73;;;6.47;;
74974;SDS011;68459;50.836;19.138;2023-05-19T18:20:09;10.45;;;6.40;;
74974;SDS011;68459;50.836;19.138;2023-05-19T18:23:15;11.75;;;7.22;;
74974;SDS011;68459;50.836;19.138;2023-05-19T18:26:21;11.93;;;6.53;;
74974;SDS011;68459;50.836;19.138;2023-05-19T18:29:25;10.00;;;6.60;;